Time;durP1;ratioP1;P1;durP2;ratioP2;P2;SDS_P1;SDS_P2;PMS_P1;PMS_P2;Temp;Humidity;BMP_temperature;BMP_pressure;BME280_temperature;BME280_humidity;BME280_pressure;Samples;Min_cycle;Max_cycle;Signal;HPM_P1;HPM_P2
2022/01/02 00:00:33;0.00;0.00;0.62;0.00;0.00;0.62;2.27;1.70;;;25.40;33.10;;;;;;2245088;61;20401;-62
2022/01/02 00:03:23;0.00;0.00;0.62;0.00;0.00;0.62;1.70;1.30;;;25.40;33.10;;;;;;2245587;61;20443;-63
2022/01/02 00:06:09;0.00;0.00;0.62;0.00;0.00;0.62;2.43;1.73;;;25.40;33.10;;;;;;2245917;61;20370;-59
2022/01/02 00:09:03;0.00;0.00;0.62;0.00;0.00;0.62;2.07;1.60;;;25.40;33.10;;;;;;2244396;61;20357;-60
2022/01/02 00:11:53;0.00;0.00;0.62;0.00;0.00;0.62;2.03;1.60;;;25.40;33.00;;;;;;2245605;61;20417;-60
2022/01/02 00:14:43;0.00;0.00;0.62;0.00;0.00;0.62;7.73;1.60;;;25.40;33.00;;;;;;2245578;61;20365;-62
2022/01/02 00:17:30;0.00;0.00;0.62;0.00;0.00;0.62;1.90;1.50;;;25.40;33.10;;;;;;2244656;61;20692;-61
2022/01/02 00:20:19;0.00;0.00;0.62;0.00;0.00;0.62;2.10;1.70;;;25.40;33.10;;;;;;2245683;61;20644;-62
2022/01/02 00:23:06;0.00;0.00;0.62;0.00;0.00;0.62;1.83;1.27;;;25.40;33.20;;;;;;2247015;61;20381;-60
2022/01/02 00:25:54;0.00;0.00;0.62;0.00;0.00;0.62;2.43;1.63;;;25.40;33.20;;;;;;2245779;61;20442;-61
2022/01/02 00:28:39;0.00;0.00;0.62;0.00;0.00;0.62;1.70;1.40;;;25.40;33.20;;;;;;2245395;61;20364;-62
2022/01/02 00:31:24;0.00;0.00;0.62;0.00;0.00;0.62;1.70;1.10;;;25.40;33.20;;;;;;2244578;61;20665;-61
2022/01/02 00:34:10;0.00;0.00;0.62;0.00;0.00;0.62;1.77;1.10;;;25.40;33.20;;;;;;2245419;61;20381;-62
2022/01/02 00:36:56;0.00;0.00;0.62;0.00;0.00;0.62;2.10;1.17;;;25.40;33.20;;;;;;2245256;61;20583;-62
2022/01/02 00:39:43;0.00;0.00;0.62;0.00;0.00;0.62;1.90;1.30;;;25.40;33.20;;;;;;2244596;61;20412;-62
2022/01/02 00:42:31;0.00;0.00;0.62;0.00;0.00;0.62;3.40;1.30;;;25.40;33.20;;;;;;2245405;61;20362;-62
2022/01/02 00:45:23;0.00;0.00;0.62;0.00;0.00;0.62;2.00;1.37;;;25.40;33.20;;;;;;2244943;61;20385;-61
2022/01/02 00:48:14;0.00;0.00;0.62;0.00;0.00;0.62;1.50;1.00;;;25.40;33.20;;;;;;2245440;61;20588;-62
2022/01/02 00:51:03;0.00;0.00;0.62;0.00;0.00;0.62;1.70;1.20;;;25.40;33.20;;;;;;2245343;61;20809;-61
2022/01/02 00:53:54;0.00;0.00;0.62;0.00;0.00;0.62;2.10;1.43;;;25.40;33.20;;;;;;2244675;61;20576;-61
2022/01/02 00:56:43;0.00;0.00;0.62;0.00;0.00;0.62;2.77;1.80;;;25.40;33.20;;;;;;2245414;61;20475;-61
2022/01/02 00:59:30;0.00;0.00;0.62;0.00;0.00;0.62;2.30;1.33;;;25.40;33.20;;;;;;2247385;61;20426;-63
2022/01/02 01:02:21;0.00;0.00;0.62;0.00;0.00;0.62;1.83;1.40;;;25.40;33.10;;;;;;2247253;61;20361;-63
2022/01/02 01:05:08;0.00;0.00;0.62;0.00;0.00;0.62;1.87;1.30;;;25.40;33.10;;;;;;2247811;61;20709;-63
2022/01/02 01:07:55;0.00;0.00;0.62;0.00;0.00;0.62;2.00;1.27;;;25.40;33.10;;;;;;2244595;61;20698;-62
2022/01/02 01:10:44;0.00;0.00;0.62;0.00;0.00;0.62;1.50;1.10;;;25.40;33.10;;;;;;2245238;61;20394;-62
2022/01/02 01:13:29;0.00;0.00;0.62;0.00;0.00;0.62;1.87;1.23;;;25.40;33.10;;;;;;2246177;61;20601;-63
2022/01/02 01:16:15;0.00;0.00;0.62;0.00;0.00;0.62;2.37;1.63;;;25.40;33.00;;;;;;2247696;61;20761;-62
2022/01/02 01:19:02;0.00;0.00;0.62;0.00;0.00;0.62;1.93;1.30;;;25.40;33.00;;;;;;2248061;61;20410;-63
2022/01/02 01:21:46;0.00;0.00;0.62;0.00;0.00;0.62;1.93;1.60;;;25.40;33.00;;;;;;2245970;61;20453;-64
2022/01/02 01:24:34;0.00;0.00;0.62;0.00;0.00;0.62;2.40;1.60;;;25.40;32.90;;;;;;2247792;61;20365;-63
2022/01/02 01:27:21;0.00;0.00;0.62;0.00;0.00;0.62;2.73;1.80;;;25.40;32.60;;;;;;2248449;61;20401;-63
2022/01/02 01:30:07;0.00;0.00;0.62;0.00;0.00;0.62;2.13;1.93;;;25.30;32.30;;;;;;2245087;61;20404;-63
2022/01/02 01:32:53;0.00;0.00;0.62;0.00;0.00;0.62;3.60;2.83;;;25.30;32.20;;;;;;2248242;61;20727;-63
2022/01/02 01:35:38;0.00;0.00;0.62;0.00;0.00;0.62;3.87;2.50;;;25.20;31.70;;;;;;2248632;61;20763;-64
2022/01/02 01:38:24;0.00;0.00;0.62;0.00;0.00;0.62;4.97;3.17;;;25.20;31.60;;;;;;2247435;61;20389;-63
2022/01/02 01:41:17;0.00;0.00;0.62;0.00;0.00;0.62;3.87;2.90;;;25.20;31.50;;;;;;2248326;61;20381;-64
2022/01/02 01:44:21;0.00;0.00;0.62;0.00;0.00;0.62;4.00;2.73;;;25.10;31.30;;;;;;2246125;61;20358;-64
2022/01/02 01:47:06;0.00;0.00;0.62;0.00;0.00;0.62;3.53;3.07;;;25.10;31.30;;;;;;2248090;61;20354;-63
2022/01/02 01:49:50;0.00;0.00;0.62;0.00;0.00;0.62;3.60;2.67;;;25.00;31.10;;;;;;2246079;61;20781;-63
2022/01/02 01:52:35;0.00;0.00;0.62;0.00;0.00;0.62;2.90;2.47;;;25.00;31.10;;;;;;2247417;61;20403;-63
2022/01/02 01:55:20;0.00;0.00;0.62;0.00;0.00;0.62;3.30;3.00;;;24.90;31.00;;;;;;2245696;61;20402;-64
2022/01/02 01:58:06;0.00;0.00;0.62;0.00;0.00;0.62;3.23;2.70;;;24.80;30.90;;;;;;2246125;61;20872;-61
2022/01/02 02:00:55;0.00;0.00;0.62;0.00;0.00;0.62;3.27;2.50;;;24.80;31.70;;;;;;2247408;61;20374;-64
2022/01/02 02:03:52;0.00;0.00;0.62;0.00;0.00;0.62;3.20;2.90;;;24.70;31.00;;;;;;2248543;61;20473;-64
2022/01/02 02:06:37;0.00;0.00;0.62;0.00;0.00;0.62;3.10;2.63;;;24.70;31.00;;;;;;2247915;61;20364;-64
2022/01/02 02:09:26;0.00;0.00;0.62;0.00;0.00;0.62;2.70;2.30;;;24.70;31.00;;;;;;2247902;61;20381;-64
2022/01/02 02:12:14;0.00;0.00;0.62;0.00;0.00;0.62;5.87;3.13;;;24.60;31.00;;;;;;2248489;61;20772;-61
2022/01/02 02:15:02;0.00;0.00;0.62;0.00;0.00;0.62;3.97;2.80;;;24.60;31.00;;;;;;2247177;61;20649;-64
2022/01/02 02:17:52;0.00;0.00;0.62;0.00;0.00;0.62;3.13;2.33;;;24.60;31.10;;;;;;2248130;61;20439;-63
2022/01/02 02:20:38;0.00;0.00;0.62;0.00;0.00;0.62;3.20;2.60;;;24.60;31.10;;;;;;2245768;61;20392;-64
2022/01/02 02:23:30;0.00;0.00;0.62;0.00;0.00;0.62;2.90;2.20;;;24.50;30.90;;;;;;2247312;61;20366;-63
2022/01/02 02:26:15;0.00;0.00;0.62;0.00;0.00;0.62;3.43;2.67;;;24.40;31.00;;;;;;2246277;61;20729;-61
2022/01/02 02:29:00;0.00;0.00;0.62;0.00;0.00;0.62;3.67;3.03;;;24.50;31.10;;;;;;2244663;61;20453;-62
2022/01/02 02:31:45;0.00;0.00;0.62;0.00;0.00;0.62;3.00;2.70;;;24.40;31.10;;;;;;2248287;61;20606;-62
2022/01/02 02:34:30;0.00;0.00;0.62;0.00;0.00;0.62;2.93;2.27;;;24.40;31.30;;;;;;2246273;61;20748;-61
2022/01/02 02:37:16;0.00;0.00;0.62;0.00;0.00;0.62;2.67;1.90;;;24.40;31.30;;;;;;2244973;61;20478;-63
2022/01/02 02:40:01;0.00;0.00;0.62;0.00;0.00;0.62;3.10;2.50;;;24.30;31.30;;;;;;2248193;61;20384;-66
2022/01/02 02:42:51;0.00;0.00;0.62;0.00;0.00;0.62;3.33;2.50;;;24.30;31.40;;;;;;2248055;61;20357;-63
2022/01/02 02:51:54;0.00;0.00;0.62;0.00;0.00;0.62;2.60;2.30;;;24.30;31.40;;;;;;2247027;61;20820;-63
2022/01/02 02:54:54;0.00;0.00;0.62;0.00;0.00;0.62;3.30;2.53;;;24.30;31.40;;;;;;2248238;61;20745;-63
2022/01/02 02:57:40;0.00;0.00;0.62;0.00;0.00;0.62;2.70;2.17;;;24.30;31.40;;;;;;2247686;61;20378;-63
2022/01/02 03:00:25;0.00;0.00;0.62;0.00;0.00;0.62;3.57;2.50;;;24.30;31.40;;;;;;2247509;61;20384;-63
2022/01/02 03:03:10;0.00;0.00;0.62;0.00;0.00;0.62;2.67;1.90;;;24.30;31.50;;;;;;2248446;61;20722;-63
2022/01/02 03:05:54;0.00;0.00;0.62;0.00;0.00;0.62;2.33;2.10;;;24.30;31.50;;;;;;2244853;61;20717;-62
2022/01/02 03:08:41;0.00;0.00;0.62;0.00;0.00;0.62;2.77;2.10;;;24.30;31.50;;;;;;2248132;61;20364;-63
2022/01/02 03:11:30;0.00;0.00;0.62;0.00;0.00;0.62;2.23;1.97;;;24.30;31.60;;;;;;2245376;61;20389;-62
2022/01/02 03:14:14;0.00;0.00;0.62;0.00;0.00;0.62;2.80;2.30;;;24.30;31.60;;;;;;2247251;61;20498;-62
2022/01/02 03:17:03;0.00;0.00;0.62;0.00;0.00;0.62;3.30;2.40;;;24.20;31.50;;;;;;2248239;61;20586;-63
2022/01/02 03:19:48;0.00;0.00;0.62;0.00;0.00;0.62;3.37;2.20;;;24.20;31.40;;;;;;2245203;61;20413;-63
2022/01/02 03:22:34;0.00;0.00;0.62;0.00;0.00;0.62;4.10;2.63;;;24.20;31.40;;;;;;2247680;61;20410;-62
2022/01/02 03:25:20;0.00;0.00;0.62;0.00;0.00;0.62;4.20;3.07;;;24.20;31.50;;;;;;2245853;61;20405;-63
2022/01/02 03:28:06;0.00;0.00;0.62;0.00;0.00;0.62;2.33;2.13;;;24.20;31.40;;;;;;2244873;61;20358;-63
2022/01/02 03:30:51;0.00;0.00;0.62;0.00;0.00;0.62;3.87;2.43;;;24.20;31.40;;;;;;2245721;61;20389;-62
2022/01/02 03:33:36;0.00;0.00;0.62;0.00;0.00;0.62;2.50;2.00;;;24.20;31.50;;;;;;2247938;61;20613;-63
2022/01/02 03:36:22;0.00;0.00;0.62;0.00;0.00;0.62;2.57;1.87;;;24.20;31.50;;;;;;2247238;61;20406;-61
2022/01/02 03:39:07;0.00;0.00;0.62;0.00;0.00;0.62;2.20;2.00;;;24.20;31.50;;;;;;2245463;61;20366;-63
2022/01/02 03:41:51;0.00;0.00;0.62;0.00;0.00;0.62;2.27;1.93;;;24.20;31.50;;;;;;2248030;61;20365;-64
2022/01/02 03:44:38;0.00;0.00;0.62;0.00;0.00;0.62;2.63;2.20;;;24.20;31.50;;;;;;2247316;61;20409;-63
2022/01/02 03:47:23;0.00;0.00;0.62;0.00;0.00;0.62;2.40;2.07;;;24.20;31.50;;;;;;2245604;61;20483;-63
2022/01/02 03:50:11;0.00;0.00;0.62;0.00;0.00;0.62;3.90;2.20;;;24.20;31.50;;;;;;2247661;61;20413;-61
2022/01/02 03:52:56;0.00;0.00;0.62;0.00;0.00;0.62;2.53;1.70;;;24.20;31.50;;;;;;2247984;61;20362;-63
2022/01/02 03:55:41;0.00;0.00;0.62;0.00;0.00;0.62;2.33;2.00;;;24.20;31.60;;;;;;2245785;61;20357;-63
2022/01/02 03:58:26;0.00;0.00;0.62;0.00;0.00;0.62;3.10;2.23;;;24.20;31.60;;;;;;2246876;61;20362;-62
2022/01/02 04:01:12;0.00;0.00;0.62;0.00;0.00;0.62;3.33;2.13;;;24.10;31.50;;;;;;2247769;61;20430;-61
2022/01/02 04:03:57;0.00;0.00;0.62;0.00;0.00;0.62;3.47;2.43;;;24.10;31.50;;;;;;2248213;61;20361;-63
2022/01/02 04:06:41;0.00;0.00;0.62;0.00;0.00;0.62;2.40;1.93;;;24.10;31.50;;;;;;2245053;61;20373;-63
2022/01/02 04:09:26;0.00;0.00;0.62;0.00;0.00;0.62;2.43;2.00;;;24.10;31.50;;;;;;2247784;61;20429;-64
2022/01/02 04:12:11;0.00;0.00;0.62;0.00;0.00;0.62;3.60;2.33;;;24.10;31.60;;;;;;2247759;61;20622;-63
2022/01/02 04:14:55;0.00;0.00;0.62;0.00;0.00;0.62;2.50;1.90;;;24.10;31.50;;;;;;2245323;61;20357;-63
2022/01/02 04:17:42;0.00;0.00;0.62;0.00;0.00;0.62;2.80;2.00;;;24.10;31.50;;;;;;2245773;61;20368;-62
2022/01/02 04:20:30;0.00;0.00;0.62;0.00;0.00;0.62;2.57;2.27;;;24.10;31.50;;;;;;2246913;61;20693;-63
2022/01/02 04:23:15;0.00;0.00;0.62;0.00;0.00;0.62;2.47;1.90;;;24.10;31.50;;;;;;2247674;61;20389;-63
2022/01/02 04:26:00;0.00;0.00;0.62;0.00;0.00;0.62;3.90;2.30;;;24.10;31.40;;;;;;2245900;61;20390;-63
2022/01/02 04:28:44;0.00;0.00;0.62;0.00;0.00;0.62;2.70;2.30;;;24.00;31.30;;;;;;2244908;61;20465;-63
2022/01/02 04:31:29;0.00;0.00;0.62;0.00;0.00;0.62;4.03;2.27;;;24.00;31.30;;;;;;2245501;61;20393;-63
2022/01/02 04:34:17;0.00;0.00;0.62;0.00;0.00;0.62;2.90;2.17;;;24.00;31.20;;;;;;2247797;61;20741;-62
2022/01/02 04:37:04;0.00;0.00;0.62;0.00;0.00;0.62;3.90;2.87;;;23.90;31.10;;;;;;2247311;61;20365;-65
2022/01/02 04:39:49;0.00;0.00;0.62;0.00;0.00;0.62;4.40;2.60;;;23.90;31.10;;;;;;2247803;61;20413;-63
2022/01/02 04:42:34;0.00;0.00;0.62;0.00;0.00;0.62;4.13;2.63;;;23.90;31.20;;;;;;2246916;61;20358;-63
2022/01/02 04:45:19;0.00;0.00;0.62;0.00;0.00;0.62;3.43;1.77;;;23.90;31.30;;;;;;2247844;61;20365;-64
2022/01/02 04:48:04;0.00;0.00;0.62;0.00;0.00;0.62;2.60;2.17;;;23.90;31.30;;;;;;2246197;61;20441;-63
2022/01/02 04:50:50;0.00;0.00;0.62;0.00;0.00;0.62;4.10;1.90;;;23.80;31.30;;;;;;2245140;61;20458;-63
2022/01/02 04:53:37;0.00;0.00;0.62;0.00;0.00;0.62;2.70;2.20;;;23.80;31.30;;;;;;2248781;61;20649;-63
2022/01/02 04:56:22;0.00;0.00;0.62;0.00;0.00;0.62;3.73;2.33;;;23.80;31.30;;;;;;2245545;61;20650;-63
2022/01/02 04:59:07;0.00;0.00;0.62;0.00;0.00;0.62;3.03;2.30;;;23.80;31.40;;;;;;2247536;61;20769;-63
2022/01/02 05:01:52;0.00;0.00;0.62;0.00;0.00;0.62;2.67;2.00;;;23.80;31.40;;;;;;2248693;61;20397;-62
2022/01/02 05:04:36;0.00;0.00;0.62;0.00;0.00;0.62;2.83;2.23;;;23.80;31.40;;;;;;2247535;61;20377;-63
2022/01/02 05:07:22;0.00;0.00;0.62;0.00;0.00;0.62;3.70;2.33;;;23.80;31.50;;;;;;2246074;61;20425;-63
2022/01/02 05:10:08;0.00;0.00;0.62;0.00;0.00;0.62;4.10;2.93;;;23.80;31.50;;;;;;2246109;61;20433;-63
2022/01/02 05:12:52;0.00;0.00;0.62;0.00;0.00;0.62;4.40;2.53;;;23.80;31.40;;;;;;2247459;61;20624;-62
2022/01/02 05:15:37;0.00;0.00;0.62;0.00;0.00;0.62;3.80;2.53;;;23.80;31.50;;;;;;2248572;61;20361;-63
2022/01/02 05:18:22;0.00;0.00;0.62;0.00;0.00;0.62;3.73;2.40;;;23.70;31.40;;;;;;2247952;61;20394;-63
2022/01/02 05:21:06;0.00;0.00;0.62;0.00;0.00;0.62;3.40;2.40;;;23.70;32.10;;;;;;2247692;61;20588;-63
2022/01/02 05:23:53;0.00;0.00;0.62;0.00;0.00;0.62;4.33;1.87;;;23.80;31.50;;;;;;2248670;61;20369;-63
2022/01/02 05:26:38;0.00;0.00;0.62;0.00;0.00;0.62;3.30;2.20;;;23.70;31.40;;;;;;2245140;61;20718;-63
2022/01/02 05:29:23;0.00;0.00;0.62;0.00;0.00;0.62;2.23;1.77;;;23.70;31.50;;;;;;2248160;61;20385;-63
2022/01/02 05:32:08;0.00;0.00;0.62;0.00;0.00;0.62;3.60;2.40;;;23.70;31.50;;;;;;2248344;61;20416;-62
2022/01/02 05:34:52;0.00;0.00;0.62;0.00;0.00;0.62;2.60;1.80;;;23.70;31.50;;;;;;2245168;61;20834;-63
2022/01/02 05:37:37;0.00;0.00;0.62;0.00;0.00;0.62;8.00;3.33;;;23.70;31.50;;;;;;2248608;61;20412;-62
2022/01/02 05:40:23;0.00;0.00;0.62;0.00;0.00;0.62;2.90;2.00;;;23.70;31.50;;;;;;2245666;61;20393;-62
2022/01/02 05:43:08;0.00;0.00;0.62;0.00;0.00;0.62;3.00;2.43;;;23.60;31.50;;;;;;2245271;61;20482;-63
2022/01/02 05:45:55;0.00;0.00;0.62;0.00;0.00;0.62;4.47;3.07;;;23.60;31.50;;;;;;2248572;61;20377;-62
2022/01/02 05:48:40;0.00;0.00;0.62;0.00;0.00;0.62;3.17;2.43;;;23.60;31.60;;;;;;2247453;61;20357;-62
2022/01/02 05:51:25;0.00;0.00;0.62;0.00;0.00;0.62;2.23;2.03;;;23.60;31.60;;;;;;2248265;61;20822;-63
2022/01/02 05:54:10;0.00;0.00;0.62;0.00;0.00;0.62;2.87;1.83;;;23.60;31.60;;;;;;2248361;61;20410;-62
2022/01/02 05:56:56;0.00;0.00;0.62;0.00;0.00;0.62;3.63;2.07;;;23.60;31.70;;;;;;2247230;61;20745;-62
2022/01/02 05:59:40;0.00;0.00;0.62;0.00;0.00;0.62;2.13;1.73;;;23.60;31.70;;;;;;2247852;61;20501;-62
2022/01/02 06:02:25;0.00;0.00;0.62;0.00;0.00;0.62;4.47;2.40;;;23.60;31.70;;;;;;2248490;61;20405;-63
2022/01/02 06:05:10;0.00;0.00;0.62;0.00;0.00;0.62;2.30;1.60;;;23.60;31.70;;;;;;2245222;61;20362;-63
2022/01/02 06:07:55;0.00;0.00;0.62;0.00;0.00;0.62;3.30;2.10;;;23.60;31.70;;;;;;2248263;61;20370;-63
2022/01/02 06:10:41;0.00;0.00;0.62;0.00;0.00;0.62;4.63;2.33;;;23.60;31.70;;;;;;2248054;61;20448;-62
2022/01/02 06:13:27;0.00;0.00;0.62;0.00;0.00;0.62;5.30;2.53;;;23.60;31.70;;;;;;2245816;61;20369;-63
2022/01/02 06:16:12;0.00;0.00;0.62;0.00;0.00;0.62;2.50;1.87;;;23.60;31.80;;;;;;2248408;61;20357;-63
2022/01/02 06:18:57;0.00;0.00;0.62;0.00;0.00;0.62;3.70;2.37;;;23.60;31.80;;;;;;2247091;61;20361;-62
2022/01/02 06:21:42;0.00;0.00;0.62;0.00;0.00;0.62;5.23;2.30;;;23.60;31.80;;;;;;2248257;61;20385;-62
2022/01/02 06:24:28;0.00;0.00;0.62;0.00;0.00;0.62;2.70;1.87;;;23.60;31.80;;;;;;2248418;61;20401;-62
2022/01/02 06:27:13;0.00;0.00;0.62;0.00;0.00;0.62;3.30;2.50;;;23.60;31.80;;;;;;2247578;61;20377;-62
2022/01/02 06:30:00;0.00;0.00;0.62;0.00;0.00;0.62;3.70;2.03;;;23.60;31.80;;;;;;2248192;61;20441;-62
2022/01/02 06:32:44;0.00;0.00;0.62;0.00;0.00;0.62;3.07;2.00;;;23.60;31.90;;;;;;2247999;61;20603;-63
2022/01/02 06:35:32;0.00;0.00;0.62;0.00;0.00;0.62;3.73;1.90;;;23.50;31.80;;;;;;2247762;61;20397;-62
2022/01/02 06:38:20;0.00;0.00;0.62;0.00;0.00;0.62;4.00;2.17;;;23.50;31.80;;;;;;2248241;61;20433;-63
2022/01/02 06:41:11;0.00;0.00;0.62;0.00;0.00;0.62;3.03;1.80;;;23.50;31.80;;;;;;2247201;61;20384;-62
2022/01/02 06:43:56;0.00;0.00;0.62;0.00;0.00;0.62;2.33;1.70;;;23.50;31.90;;;;;;2248164;61;20365;-63
2022/01/02 06:46:43;0.00;0.00;0.62;0.00;0.00;0.62;2.43;1.80;;;23.50;31.90;;;;;;2248409;61;20396;-63
2022/01/02 06:49:28;0.00;0.00;0.62;0.00;0.00;0.62;2.20;1.60;;;23.50;32.00;;;;;;2247149;61;20780;-62
2022/01/02 06:52:14;0.00;0.00;0.62;0.00;0.00;0.62;3.80;1.93;;;23.40;31.90;;;;;;2245922;61;20393;-63
2022/01/02 06:54:59;0.00;0.00;0.62;0.00;0.00;0.62;4.13;2.00;;;23.40;32.00;;;;;;2248057;61;20625;-63
2022/01/02 06:57:44;0.00;0.00;0.62;0.00;0.00;0.62;2.83;2.30;;;23.40;32.00;;;;;;2248095;61;20409;-63
2022/01/02 07:00:29;0.00;0.00;0.62;0.00;0.00;0.62;4.63;2.23;;;23.40;32.10;;;;;;2248276;61;20393;-63
2022/01/02 07:03:15;0.00;0.00;0.62;0.00;0.00;0.62;3.50;1.90;;;23.40;32.10;;;;;;2247118;61;20366;-63
2022/01/02 07:06:01;0.00;0.00;0.62;0.00;0.00;0.62;3.23;2.13;;;23.40;32.10;;;;;;2248140;61;20470;-63
2022/01/02 07:08:46;0.00;0.00;0.62;0.00;0.00;0.62;3.33;2.10;;;23.30;32.10;;;;;;2248214;61;20357;-62
2022/01/02 07:11:30;0.00;0.00;0.62;0.00;0.00;0.62;3.67;1.63;;;23.30;32.10;;;;;;2244878;61;20429;-63
2022/01/02 07:14:15;0.00;0.00;0.62;0.00;0.00;0.62;4.90;2.23;;;23.30;32.20;;;;;;2245857;61;20437;-63
2022/01/02 07:17:00;0.00;0.00;0.62;0.00;0.00;0.62;3.53;2.50;;;23.30;32.20;;;;;;2245593;61;20676;-63
2022/01/02 07:19:46;0.00;0.00;0.62;0.00;0.00;0.62;2.90;1.70;;;23.30;32.20;;;;;;2244869;61;20642;-62
2022/01/02 07:22:31;0.00;0.00;0.62;0.00;0.00;0.62;3.10;1.90;;;23.30;32.30;;;;;;2248193;61;20481;-62
2022/01/02 07:25:15;0.00;0.00;0.62;0.00;0.00;0.62;4.03;2.10;;;23.30;32.40;;;;;;2244682;61;20754;-63
2022/01/02 07:28:00;0.00;0.00;0.62;0.00;0.00;0.62;3.40;1.77;;;23.30;32.40;;;;;;2245579;61;20470;-62
2022/01/02 07:30:44;0.00;0.00;0.62;0.00;0.00;0.62;6.70;1.67;;;23.30;32.40;;;;;;2245704;61;20389;-62
2022/01/02 07:33:29;0.00;0.00;0.62;0.00;0.00;0.62;4.90;2.40;;;23.20;32.30;;;;;;2244848;61;20644;-63
2022/01/02 07:36:15;0.00;0.00;0.62;0.00;0.00;0.62;2.37;1.63;;;23.30;32.50;;;;;;2245709;61;20421;-62
2022/01/02 07:38:59;0.00;0.00;0.62;0.00;0.00;0.62;2.57;1.80;;;23.30;32.50;;;;;;2247465;61;20362;-62
2022/01/02 07:41:44;0.00;0.00;0.62;0.00;0.00;0.62;2.47;1.57;;;23.20;32.40;;;;;;2245221;61;20617;-63
2022/01/02 07:44:28;0.00;0.00;0.62;0.00;0.00;0.62;3.13;1.93;;;23.30;32.60;;;;;;2245932;61;20726;-67
2022/01/02 07:47:13;0.00;0.00;0.62;0.00;0.00;0.62;3.20;2.17;;;23.30;32.60;;;;;;2244783;61;20394;-61
2022/01/02 07:49:57;0.00;0.00;0.62;0.00;0.00;0.62;5.30;2.27;;;23.30;32.60;;;;;;2245426;61;20381;-61
2022/01/02 07:52:43;0.00;0.00;0.62;0.00;0.00;0.62;4.83;2.20;;;23.20;33.20;;;;;;2245660;61;20742;-63
2022/01/02 07:55:28;0.00;0.00;0.62;0.00;0.00;0.62;3.70;1.90;;;23.20;32.60;;;;;;2244921;61;20370;-63
2022/01/02 07:58:13;0.00;0.00;0.62;0.00;0.00;0.62;6.47;2.07;;;23.20;32.60;;;;;;2245365;61;20656;-61
2022/01/02 08:00:57;0.00;0.00;0.62;0.00;0.00;0.62;3.70;1.80;;;23.20;32.60;;;;;;2245474;61;20417;-63
2022/01/02 08:03:42;0.00;0.00;0.62;0.00;0.00;0.62;4.40;2.00;;;23.20;32.60;;;;;;2244811;61;20421;-62
2022/01/02 08:06:26;0.00;0.00;0.62;0.00;0.00;0.62;4.43;2.30;;;23.20;32.60;;;;;;2245743;61;20366;-63
2022/01/02 08:09:12;0.00;0.00;0.62;0.00;0.00;0.62;3.80;1.67;;;23.30;32.70;;;;;;2245410;61;20409;-63
2022/01/02 08:11:57;0.00;0.00;0.62;0.00;0.00;0.62;2.53;1.93;;;23.30;32.70;;;;;;2245378;61;20381;-62
2022/01/02 08:14:41;0.00;0.00;0.62;0.00;0.00;0.62;2.73;1.60;;;23.30;32.80;;;;;;2245748;61;20649;-61
2022/01/02 08:17:27;0.00;0.00;0.62;0.00;0.00;0.62;2.43;1.90;;;23.30;32.80;;;;;;2244728;61;20808;-62
2022/01/02 08:20:12;0.00;0.00;0.62;0.00;0.00;0.62;2.03;1.50;;;23.30;32.80;;;;;;2245450;61;20425;-62
2022/01/02 08:22:57;0.00;0.00;0.62;0.00;0.00;0.62;4.60;2.23;;;23.30;32.80;;;;;;2246409;61;20624;-62
2022/01/02 08:25:43;0.00;0.00;0.62;0.00;0.00;0.62;4.60;2.47;;;23.20;32.70;;;;;;2245629;61;20623;-62
2022/01/02 08:28:27;0.00;0.00;0.62;0.00;0.00;0.62;3.27;2.30;;;23.20;32.60;;;;;;2246240;61;20471;-62
2022/01/02 08:31:12;0.00;0.00;0.62;0.00;0.00;0.62;4.43;2.43;;;23.30;32.70;;;;;;2245888;61;20464;-62
2022/01/02 08:33:57;0.00;0.00;0.62;0.00;0.00;0.62;3.63;1.83;;;23.20;32.60;;;;;;2246109;61;20437;-63
2022/01/02 08:36:42;0.00;0.00;0.62;0.00;0.00;0.62;3.63;2.20;;;23.20;32.70;;;;;;2246419;61;20361;-62
2022/01/02 08:39:26;0.00;0.00;0.62;0.00;0.00;0.62;4.30;2.20;;;23.20;32.70;;;;;;2245168;61;20409;-62
2022/01/02 08:42:13;0.00;0.00;0.62;0.00;0.00;0.62;4.03;2.13;;;23.20;32.70;;;;;;2246142;61;20362;-63
2022/01/02 08:44:57;0.00;0.00;0.62;0.00;0.00;0.62;4.80;2.17;;;23.20;32.80;;;;;;2246459;61;20373;-62
2022/01/02 08:47:42;0.00;0.00;0.62;0.00;0.00;0.62;6.57;3.00;;;23.20;32.80;;;;;;2245359;61;20580;-62
2022/01/02 08:50:26;0.00;0.00;0.62;0.00;0.00;0.62;2.70;1.80;;;23.20;32.80;;;;;;2246288;61;20406;-62
2022/01/02 08:53:11;0.00;0.00;0.62;0.00;0.00;0.62;6.13;2.43;;;23.30;32.90;;;;;;2245923;61;20389;-62
2022/01/02 08:55:55;0.00;0.00;0.62;0.00;0.00;0.62;2.70;1.73;;;23.20;32.80;;;;;;2247746;61;20389;-61
2022/01/02 08:58:41;0.00;0.00;0.62;0.00;0.00;0.62;2.53;1.83;;;23.30;32.90;;;;;;2246330;61;20398;-62
2022/01/02 09:01:25;0.00;0.00;0.62;0.00;0.00;0.62;4.50;2.60;;;23.30;32.90;;;;;;2245170;61;20370;-62
2022/01/02 09:04:10;0.00;0.00;0.62;0.00;0.00;0.62;4.00;2.27;;;23.30;32.90;;;;;;2246012;61;20358;-62
2022/01/02 09:06:55;0.00;0.00;0.62;0.00;0.00;0.62;3.20;2.50;;;23.30;33.00;;;;;;2246383;61;20365;-63
2022/01/02 09:09:40;0.00;0.00;0.62;0.00;0.00;0.62;4.83;2.73;;;23.30;32.90;;;;;;2247447;61;20428;-63
2022/01/02 09:12:24;0.00;0.00;0.62;0.00;0.00;0.62;4.77;2.43;;;23.30;32.90;;;;;;2246074;61;20418;-62
2022/01/02 09:15:11;0.00;0.00;0.62;0.00;0.00;0.62;2.67;1.80;;;23.30;33.00;;;;;;2245763;61;20357;-62
2022/01/02 09:17:56;0.00;0.00;0.62;0.00;0.00;0.62;3.20;2.23;;;23.30;33.00;;;;;;2245157;61;20385;-62
2022/01/02 09:20:43;0.00;0.00;0.62;0.00;0.00;0.62;4.00;2.70;;;23.40;33.10;;;;;;2246261;61;20424;-62
2022/01/02 09:23:27;0.00;0.00;0.62;0.00;0.00;0.62;3.10;2.33;;;23.40;33.10;;;;;;2245084;61;20418;-62
2022/01/02 09:26:12;0.00;0.00;0.62;0.00;0.00;0.62;3.00;2.20;;;23.40;33.10;;;;;;2244156;61;20627;-63
2022/01/02 09:28:57;0.00;0.00;0.62;0.00;0.00;0.62;3.77;2.27;;;23.40;33.10;;;;;;2253786;58;20374;-63
2022/01/02 09:31:43;0.00;0.00;0.62;0.00;0.00;0.62;3.70;2.50;;;23.40;33.10;;;;;;2245210;61;20425;-63
2022/01/02 09:34:27;0.00;0.00;0.62;0.00;0.00;0.62;3.40;2.40;;;23.50;33.20;;;;;;2245930;61;20372;-62
2022/01/02 09:37:12;0.00;0.00;0.62;0.00;0.00;0.62;3.60;2.27;;;23.50;33.20;;;;;;2245477;61;20385;-63
2022/01/02 09:39:57;0.00;0.00;0.62;0.00;0.00;0.62;4.30;1.90;;;23.50;33.20;;;;;;2245683;61;20389;-63
2022/01/02 09:42:42;0.00;0.00;0.62;0.00;0.00;0.62;3.57;2.23;;;23.50;33.20;;;;;;2248083;61;20365;-63
2022/01/02 09:45:27;0.00;0.00;0.62;0.00;0.00;0.62;3.43;2.70;;;23.50;33.20;;;;;;2245663;61;20409;-64
2022/01/02 09:48:12;0.00;0.00;0.62;0.00;0.00;0.62;3.40;2.10;;;23.60;33.30;;;;;;2246004;61;20357;-63
2022/01/02 09:50:57;0.00;0.00;0.62;0.00;0.00;0.62;3.40;2.20;;;23.60;33.20;;;;;;2245819;61;20397;-63
2022/01/02 09:53:44;0.00;0.00;0.62;0.00;0.00;0.62;3.13;2.00;;;23.60;33.20;;;;;;2245680;61;20377;-63
2022/01/02 09:56:29;0.00;0.00;0.62;0.00;0.00;0.62;2.83;2.13;;;23.60;33.20;;;;;;2245734;61;20402;-63
2022/01/02 09:59:14;0.00;0.00;0.62;0.00;0.00;0.62;3.90;2.10;;;23.60;33.20;;;;;;2245286;61;20417;-63
2022/01/02 10:01:59;0.00;0.00;0.62;0.00;0.00;0.62;4.77;2.70;;;23.60;33.10;;;;;;2245942;61;20365;-63
2022/01/02 10:04:45;0.00;0.00;0.62;0.00;0.00;0.62;3.33;2.37;;;23.70;33.20;;;;;;2245574;61;20502;-63
2022/01/02 10:07:33;0.00;0.00;0.62;0.00;0.00;0.62;2.37;1.80;;;23.70;33.20;;;;;;2245708;61;20369;-63
2022/01/02 10:10:18;0.00;0.00;0.62;0.00;0.00;0.62;4.30;2.30;;;23.70;33.10;;;;;;2248362;61;20417;-63
2022/01/02 10:13:03;0.00;0.00;0.62;0.00;0.00;0.62;3.10;1.87;;;23.70;33.10;;;;;;2246126;61;20385;-63
2022/01/02 10:15:48;0.00;0.00;0.62;0.00;0.00;0.62;3.17;2.00;;;23.70;33.10;;;;;;2245590;61;20385;-63
2022/01/02 10:18:32;0.00;0.00;0.62;0.00;0.00;0.62;3.27;1.97;;;23.70;33.00;;;;;;2245339;61;20425;-63
2022/01/02 10:21:30;0.00;0.00;0.62;0.00;0.00;0.62;2.60;1.70;;;23.70;33.00;;;;;;2245614;61;20401;-63
2022/01/02 10:24:18;0.00;0.00;0.62;0.00;0.00;0.62;3.73;2.17;;;23.80;33.10;;;;;;2245924;61;20827;-63
2022/01/02 10:27:10;0.00;0.00;0.62;0.00;0.00;0.62;2.43;1.87;;;23.80;33.00;;;;;;2245601;61;20625;-63
2022/01/02 10:29:58;0.00;0.00;0.62;0.00;0.00;0.62;2.57;1.50;;;23.80;33.00;;;;;;2244911;61;20429;-63
2022/01/02 10:32:43;0.00;0.00;0.62;0.00;0.00;0.62;2.87;1.97;;;23.80;33.00;;;;;;2245409;61;20654;-63
2022/01/02 10:35:27;0.00;0.00;0.62;0.00;0.00;0.62;2.57;2.20;;;23.80;33.00;;;;;;2246156;61;20365;-63
2022/01/02 10:38:17;0.00;0.00;0.62;0.00;0.00;0.62;2.57;1.97;;;23.80;33.00;;;;;;2245354;61;20381;-63
2022/01/02 10:41:02;0.00;0.00;0.62;0.00;0.00;0.62;3.37;1.97;;;23.80;33.00;;;;;;2245536;61;20398;-63
2022/01/02 10:43:47;0.00;0.00;0.62;0.00;0.00;0.62;3.00;1.97;;;23.80;32.90;;;;;;2245508;61;20392;-63
2022/01/02 10:46:31;0.00;0.00;0.62;0.00;0.00;0.62;2.93;1.80;;;23.90;33.00;;;;;;2245549;61;20366;-63
2022/01/02 10:49:16;0.00;0.00;0.62;0.00;0.00;0.62;3.00;1.40;;;23.90;33.00;;;;;;2245526;61;20663;-63
2022/01/02 10:52:20;0.00;0.00;0.62;0.00;0.00;0.62;2.27;1.80;;;23.90;32.90;;;;;;2245345;61;20425;-63
2022/01/02 10:55:15;0.00;0.00;0.62;0.00;0.00;0.62;2.70;1.87;;;23.90;32.90;;;;;;2245451;61;20380;-63
2022/01/02 10:58:00;0.00;0.00;0.62;0.00;0.00;0.62;3.00;1.40;;;23.90;32.90;;;;;;2245598;61;20405;-63
2022/01/02 11:00:45;0.00;0.00;0.62;0.00;0.00;0.62;1.70;1.23;;;23.90;32.90;;;;;;2245584;61;20389;-63